createdAt,value
2022-12-08T00:01:09.254Z,28.83
2022-12-08T00:04:57.552Z,27.43
2022-12-08T00:08:37.832Z,26.60
2022-12-08T00:12:02.518Z,25.23
2022-12-08T00:15:25.508Z,28.40
2022-12-08T00:18:48.470Z,26.53
2022-12-08T00:22:14.713Z,26.63
2022-12-08T00:25:37.746Z,27.17
2022-12-08T00:29:00.699Z,27.83
2022-12-08T00:32:23.697Z,26.77
2022-12-08T00:35:46.737Z,26.43
2022-12-08T00:39:13.348Z,26.67
2022-12-08T00:42:36.659Z,31.73
2022-12-08T00:45:59.695Z,29.67
2022-12-08T00:49:23.124Z,31.37
2022-12-08T00:52:46.065Z,33.97
2022-12-08T00:56:10.530Z,30.47
2022-12-08T00:59:33.524Z,30.10
2022-12-08T01:02:56.505Z,29.37
2022-12-08T01:06:19.525Z,31.67
2022-12-08T01:09:42.500Z,31.47
2022-12-08T01:13:06.819Z,31.40
2022-12-08T01:16:31.469Z,33.73
2022-12-08T01:19:54.636Z,35.67
2022-12-08T01:23:17.554Z,30.70
2022-12-08T01:26:40.762Z,33.97
2022-12-08T01:30:06.229Z,35.53
2022-12-08T01:33:30.000Z,33.00
2022-12-08T01:36:52.983Z,38.80
2022-12-08T01:40:15.975Z,37.53
2022-12-08T01:43:55.480Z,41.07
2022-12-08T01:47:20.038Z,38.87
2022-12-08T01:50:44.012Z,39.30
2022-12-08T01:54:08.175Z,39.43
2022-12-08T01:57:34.283Z,38.13
2022-12-08T02:00:57.358Z,37.93
2022-12-08T02:04:21.770Z,38.37
2022-12-08T02:07:45.639Z,35.40
2022-12-08T02:11:11.102Z,35.43
2022-12-08T02:14:35.071Z,34.67
2022-12-08T02:18:04.482Z,35.73
2022-12-08T02:21:34.711Z,36.50
2022-12-08T02:25:04.405Z,33.70
2022-12-08T02:28:47.468Z,36.40
2022-12-08T02:32:35.806Z,35.20
2022-12-08T02:36:02.405Z,34.40
2022-12-08T02:39:33.847Z,34.57
2022-12-08T02:43:01.449Z,32.60
2022-12-08T02:46:29.831Z,32.70
2022-12-08T02:49:52.824Z,33.43
2022-12-08T02:53:17.146Z,30.93
2022-12-08T02:57:01.537Z,31.80
2022-12-08T03:00:28.332Z,26.20
2022-12-08T03:04:00.821Z,30.13
2022-12-08T03:07:29.988Z,30.20
2022-12-08T03:11:00.688Z,30.33
2022-12-08T03:14:24.016Z,30.80
2022-12-08T03:17:50.131Z,29.93
2022-12-08T03:21:15.834Z,33.03
2022-12-08T03:24:41.745Z,29.93
2022-12-08T03:28:06.889Z,30.57
2022-12-08T03:31:34.892Z,31.07
2022-12-08T03:35:00.114Z,27.93
2022-12-08T03:38:23.279Z,28.90
2022-12-08T03:41:46.881Z,27.77
2022-12-08T03:45:11.996Z,28.13
2022-12-08T03:48:34.963Z,28.73
2022-12-08T03:51:57.973Z,29.33
2022-12-08T03:55:21.438Z,29.77
2022-12-08T03:58:44.617Z,28.20
2022-12-08T04:02:09.012Z,26.03
2022-12-08T04:05:32.075Z,26.63
2022-12-08T04:08:55.320Z,23.90
2022-12-08T04:12:18.269Z,25.87
2022-12-08T04:15:45.246Z,24.50
2022-12-08T04:19:09.585Z,27.83
2022-12-08T04:22:32.584Z,24.50
2022-12-08T04:25:55.845Z,29.00
2022-12-08T04:29:18.832Z,26.87
2022-12-08T04:32:47.197Z,25.37
2022-12-08T04:36:12.132Z,24.63
2022-12-08T04:39:35.071Z,24.80
2022-12-08T04:42:58.040Z,26.00
2022-12-08T04:46:21.113Z,24.77
2022-12-08T04:49:44.392Z,25.47
2022-12-08T04:53:09.022Z,24.77
2022-12-08T04:56:31.968Z,25.23
2022-12-08T04:59:54.944Z,23.63
2022-12-08T05:03:22.513Z,24.97
2022-12-08T05:06:49.776Z,23.70
2022-12-08T05:10:14.112Z,25.03
2022-12-08T05:13:37.102Z,25.57
2022-12-08T05:17:03.644Z,26.27
2022-12-08T05:20:29.360Z,26.27
2022-12-08T05:23:52.333Z,26.07
2022-12-08T05:27:16.712Z,25.10
2022-12-08T05:30:39.735Z,26.30
2022-12-08T05:34:03.493Z,26.57
2022-12-08T05:37:26.670Z,27.33
2022-12-08T05:40:49.900Z,28.27
2022-12-08T05:44:14.219Z,26.23
2022-12-08T05:47:37.289Z,26.20
2022-12-08T05:51:00.965Z,29.23
2022-12-08T05:54:24.538Z,27.63
2022-12-08T05:57:47.502Z,32.17
2022-12-08T06:01:21.280Z,29.40
2022-12-08T06:04:44.425Z,33.83
2022-12-08T06:08:07.453Z,31.27
2022-12-08T06:11:31.717Z,31.90
2022-12-08T06:14:54.711Z,34.67
2022-12-08T06:18:19.148Z,36.73
2022-12-08T06:21:42.227Z,33.93
2022-12-08T06:25:09.827Z,33.40
2022-12-08T06:28:34.158Z,35.87
2022-12-08T06:31:57.373Z,37.97
2022-12-08T06:35:21.874Z,36.53
2022-12-08T06:38:45.133Z,37.07
2022-12-08T06:42:25.521Z,39.00
2022-12-08T06:45:48.560Z,38.40
2022-12-08T06:49:11.617Z,37.03
2022-12-08T06:52:43.160Z,31.87
2022-12-08T06:56:10.071Z,29.73
2022-12-08T06:59:33.103Z,29.47
2022-12-08T07:02:56.154Z,30.13
2022-12-08T07:06:23.471Z,32.57
2022-12-08T07:09:47.906Z,30.40
2022-12-08T07:13:10.944Z,29.83
2022-12-08T07:16:34.169Z,30.23
2022-12-08T07:19:57.231Z,31.47
2022-12-08T07:23:20.265Z,32.40
2022-12-08T07:26:44.627Z,31.90
2022-12-08T07:30:09.110Z,23.50
2022-12-08T07:33:32.945Z,23.07
2022-12-08T07:36:55.951Z,24.13
2022-12-08T07:40:19.096Z,25.50
2022-12-08T07:43:43.507Z,25.83
2022-12-08T07:47:06.740Z,28.33
2022-12-08T07:50:29.719Z,27.80
2022-12-08T07:53:54.569Z,25.77
2022-12-08T07:57:17.969Z,29.97
2022-12-08T08:00:42.347Z,27.40
2022-12-08T08:04:06.402Z,29.30
2022-12-08T08:07:31.471Z,30.63
2022-12-08T08:10:54.465Z,29.67
2022-12-08T08:14:17.441Z,27.10
2022-12-08T08:17:41.878Z,28.73
2022-12-08T08:21:22.070Z,27.73
2022-12-08T08:24:48.389Z,28.50
2022-12-08T08:28:11.350Z,28.33
2022-12-08T08:31:34.431Z,30.83
2022-12-08T08:34:58.830Z,30.93
2022-12-08T08:38:22.109Z,33.77
2022-12-08T08:41:45.224Z,33.33
2022-12-08T08:45:09.045Z,35.60
2022-12-08T08:48:33.284Z,36.23
2022-12-08T08:51:57.780Z,39.60
2022-12-08T08:55:20.795Z,39.93
2022-12-08T08:58:44.004Z,42.47
2022-12-08T09:02:07.184Z,42.83
2022-12-08T09:05:30.313Z,42.93
2022-12-08T09:08:54.833Z,46.87
2022-12-08T09:12:17.800Z,47.17
2022-12-08T09:15:40.904Z,47.67
2022-12-08T09:19:03.953Z,52.40
2022-12-08T09:22:26.949Z,51.10
2022-12-08T09:25:51.264Z,48.20
2022-12-08T09:29:14.711Z,50.33
2022-12-08T09:32:37.668Z,48.97
2022-12-08T09:36:06.434Z,48.80
2022-12-08T09:39:30.256Z,49.83
2022-12-08T09:43:02.192Z,51.27
2022-12-08T09:46:28.853Z,53.67
2022-12-08T09:50:02.769Z,53.03
2022-12-08T09:53:35.296Z,46.60
2022-12-08T09:57:01.850Z,45.63
2022-12-08T10:00:26.295Z,49.50
2022-12-08T10:03:49.841Z,46.67
2022-12-08T10:07:17.843Z,49.03
2022-12-08T10:10:47.805Z,50.67
2022-12-08T10:14:20.338Z,50.83
2022-12-08T10:17:48.484Z,50.33
2022-12-08T10:21:19.737Z,52.63
2022-12-08T10:24:49.848Z,55.63
2022-12-08T10:28:13.937Z,53.87
2022-12-08T10:31:37.053Z,56.77
2022-12-08T10:35:05.014Z,55.17
2022-12-08T10:38:32.278Z,55.27
2022-12-08T10:41:55.296Z,53.93
2022-12-08T10:45:28.479Z,57.13
2022-12-08T10:48:54.206Z,56.60
2022-12-08T10:52:25.228Z,62.23
2022-12-08T10:55:50.207Z,56.77
2022-12-08T10:59:17.023Z,59.40
2022-12-08T11:02:52.663Z,54.47
2022-12-08T11:06:19.805Z,57.13
2022-12-08T11:09:48.809Z,55.03
2022-12-08T11:13:20.771Z,55.17
2022-12-08T11:16:44.360Z,55.97
2022-12-08T11:20:23.253Z,52.73
2022-12-08T11:23:49.722Z,50.40
2022-12-08T11:27:14.081Z,53.77
2022-12-08T11:30:41.925Z,55.17
2022-12-08T11:34:06.765Z,53.03
2022-12-08T11:37:36.629Z,51.47
2022-12-08T11:41:07.464Z,52.87
2022-12-08T11:44:39.855Z,56.37
2022-12-08T11:48:12.303Z,52.00
2022-12-08T11:51:39.080Z,50.60
2022-12-08T11:55:06.853Z,53.87
2022-12-08T11:58:39.206Z,49.07
2022-12-08T12:02:05.319Z,53.30
2022-12-08T12:06:03.278Z,57.27
2022-12-08T12:09:22.402Z,59.37
2022-12-08T12:13:00.445Z,57.57
2022-12-08T12:16:51.604Z,62.13
2022-12-08T12:20:20.200Z,59.33
2022-12-08T12:23:46.675Z,56.83
2022-12-08T12:27:23.746Z,58.63
2022-12-08T12:30:59.428Z,59.27
2022-12-08T12:34:33.978Z,60.63
2022-12-08T12:38:42.045Z,55.23
2022-12-08T12:42:06.406Z,56.80
2022-12-08T12:45:32.921Z,56.40
2022-12-08T12:49:34.529Z,57.33
2022-12-08T12:52:57.684Z,56.33
2022-12-08T12:56:53.834Z,60.90
2022-12-08T13:00:20.533Z,54.53
2022-12-08T13:03:47.197Z,53.17
2022-12-08T13:07:14.919Z,51.13
2022-12-08T13:10:40.352Z,51.53
2022-12-08T13:14:06.263Z,47.40
2022-12-08T13:17:32.738Z,48.87
2022-12-08T13:21:01.896Z,39.07
2022-12-08T13:24:34.690Z,41.13
2022-12-08T13:27:57.674Z,45.00
2022-12-08T13:31:43.880Z,36.97
2022-12-08T13:35:12.742Z,35.13
2022-12-08T13:38:39.376Z,33.13
2022-12-08T13:42:08.365Z,34.00
2022-12-08T13:46:20.150Z,34.73
2022-12-08T13:51:23.831Z,36.60
2022-12-08T13:57:08.493Z,35.40
2022-12-08T14:00:34.142Z,33.37
2022-12-08T14:07:46.332Z,34.70
2022-12-08T14:11:11.210Z,37.50
2022-12-08T14:15:02.045Z,37.30
2022-12-08T14:18:25.866Z,37.93
2022-12-08T14:21:52.966Z,40.63
2022-12-08T14:25:18.245Z,38.80
2022-12-08T14:28:45.231Z,38.07
2022-12-08T14:32:24.351Z,39.17
2022-12-08T14:35:52.094Z,37.37
2022-12-08T14:39:15.226Z,42.10
2022-12-08T14:42:46.617Z,39.87
2022-12-08T14:46:22.990Z,41.37
2022-12-08T14:49:47.945Z,40.93
2022-12-08T14:53:17.198Z,45.60
2022-12-08T14:56:42.026Z,44.33
2022-12-08T15:00:21.830Z,43.63
2022-12-08T15:03:50.704Z,46.07
2022-12-08T15:07:17.034Z,44.80
2022-12-08T15:10:40.088Z,43.23
2022-12-08T15:14:03.593Z,45.27
2022-12-08T15:17:32.585Z,47.63
2022-12-08T15:21:02.256Z,52.60
2022-12-08T15:24:27.486Z,49.20
2022-12-08T15:27:52.995Z,49.13
2022-12-08T15:31:16.275Z,49.80
2022-12-08T15:34:40.701Z,48.57
2022-12-08T15:38:03.771Z,48.73
2022-12-08T15:41:26.909Z,50.93
2022-12-08T15:44:50.997Z,51.60
2022-12-08T15:48:22.150Z,49.97
2022-12-08T15:51:46.896Z,47.63
2022-12-08T15:55:13.749Z,50.63
2022-12-08T15:58:55.734Z,47.13
2022-12-08T16:02:22.924Z,45.53
2022-12-08T16:06:10.209Z,48.20
2022-12-08T16:09:35.205Z,50.40
2022-12-08T16:16:59.721Z,51.63
2022-12-08T16:20:32.695Z,50.00
2022-12-08T16:24:09.400Z,49.73
2022-12-08T16:28:00.008Z,50.43
2022-12-08T16:31:22.980Z,51.80
2022-12-08T16:34:46.559Z,49.97
2022-12-08T16:38:16.514Z,53.17
2022-12-08T16:41:57.290Z,53.17
2022-12-08T16:45:23.917Z,52.33
2022-12-08T16:48:47.052Z,52.57
2022-12-08T16:52:10.165Z,52.17
2022-12-08T16:55:33.768Z,54.13
2022-12-08T16:58:56.874Z,52.20
2022-12-08T17:02:21.321Z,54.93
2022-12-08T17:05:45.084Z,54.13
2022-12-08T17:09:08.152Z,53.00
2022-12-08T17:12:31.125Z,51.90
2022-12-08T17:15:54.100Z,52.77
2022-12-08T17:19:18.910Z,51.57
2022-12-08T17:22:44.611Z,50.33
2022-12-08T17:26:08.326Z,54.37
2022-12-08T17:29:31.944Z,53.63
2022-12-08T17:32:55.127Z,50.13
2022-12-08T17:36:20.421Z,53.47
2022-12-08T17:39:43.660Z,52.60
2022-12-08T17:43:06.757Z,51.07
2022-12-08T17:46:29.804Z,49.07
2022-12-08T17:49:53.057Z,49.97
2022-12-08T17:53:17.430Z,50.80
2022-12-08T17:56:40.515Z,48.73
2022-12-08T18:00:04.570Z,48.13
2022-12-08T18:03:34.849Z,48.73
2022-12-08T18:06:59.381Z,49.27
2022-12-08T18:10:23.914Z,48.63
2022-12-08T18:13:47.711Z,46.20
2022-12-08T18:17:10.742Z,52.07
2022-12-08T18:20:34.804Z,51.73
2022-12-08T18:23:57.778Z,50.97
2022-12-08T18:27:22.175Z,50.73
2022-12-08T18:30:45.244Z,46.97
2022-12-08T18:34:08.383Z,49.83
2022-12-08T18:37:31.534Z,45.53
2022-12-08T18:40:54.524Z,50.17
2022-12-08T18:44:19.524Z,47.83
2022-12-08T18:47:42.483Z,46.60
2022-12-08T18:51:10.044Z,50.53
2022-12-08T18:55:04.689Z,48.73
2022-12-08T18:58:16.110Z,49.70
2022-12-08T19:01:41.324Z,50.23
2022-12-08T19:05:04.591Z,47.50
2022-12-08T19:08:31.298Z,45.53
2022-12-08T19:11:55.133Z,47.40
2022-12-08T19:15:18.232Z,43.67
2022-12-08T19:18:42.717Z,44.70
2022-12-08T19:22:05.779Z,47.60
2022-12-08T19:25:28.799Z,44.43
2022-12-08T19:28:51.785Z,44.23
2022-12-08T19:32:14.889Z,44.10
2022-12-08T19:35:39.240Z,45.33
2022-12-08T19:39:19.784Z,45.80
2022-12-08T19:43:00.485Z,47.93
2022-12-08T19:46:25.172Z,51.30
2022-12-08T19:49:48.556Z,51.93
2022-12-08T19:53:14.723Z,55.13
2022-12-08T19:56:37.746Z,51.83
2022-12-08T20:00:00.745Z,54.13
2022-12-08T20:03:24.169Z,51.93
2022-12-08T20:06:48.068Z,51.43
2022-12-08T20:10:16.818Z,57.30
2022-12-08T20:13:44.600Z,55.83
2022-12-08T20:17:07.709Z,54.07
2022-12-08T20:20:30.944Z,53.90
2022-12-08T20:23:54.073Z,54.83
2022-12-08T20:27:18.578Z,53.33
2022-12-08T20:30:44.086Z,50.37
2022-12-08T20:34:07.134Z,51.13
2022-12-08T20:37:30.123Z,48.60
2022-12-08T20:40:53.223Z,52.73
2022-12-08T20:44:17.879Z,49.23
2022-12-08T20:47:40.852Z,45.20
2022-12-08T20:51:04.295Z,46.03
2022-12-08T20:54:28.081Z,43.97
2022-12-08T20:57:51.249Z,47.53
2022-12-08T21:01:17.293Z,47.03
2022-12-08T21:04:40.873Z,47.67
2022-12-08T21:08:04.630Z,43.10
2022-12-08T21:11:27.807Z,43.87
2022-12-08T21:14:50.846Z,43.10
2022-12-08T21:18:15.932Z,42.80
2022-12-08T21:21:39.393Z,43.13
2022-12-08T21:25:02.423Z,43.20
2022-12-08T21:28:25.593Z,45.13
2022-12-08T21:31:48.733Z,42.80
2022-12-08T21:35:13.438Z,44.67
2022-12-08T21:38:36.972Z,41.07
2022-12-08T21:42:18.799Z,47.00
2022-12-08T21:45:44.528Z,42.30
2022-12-08T21:49:07.744Z,41.83
2022-12-08T21:52:32.244Z,44.10
2022-12-08T21:55:55.211Z,42.40
2022-12-08T21:59:19.692Z,44.07
2022-12-08T22:02:43.247Z,43.67
2022-12-08T22:06:07.527Z,42.57
2022-12-08T22:09:31.976Z,44.00
2022-12-08T22:12:54.993Z,44.70
2022-12-08T22:16:18.376Z,45.47
2022-12-08T22:19:41.396Z,40.93
2022-12-08T22:23:04.668Z,44.17
2022-12-08T22:26:29.063Z,43.83
2022-12-08T22:29:52.112Z,44.63
2022-12-08T22:33:15.023Z,46.33
2022-12-08T22:36:38.004Z,42.73
2022-12-08T22:40:01.231Z,44.27
2022-12-08T22:43:25.590Z,42.50
2022-12-08T22:46:48.637Z,42.63
2022-12-08T22:50:12.455Z,41.77
2022-12-08T22:53:35.507Z,45.13
2022-12-08T22:56:58.467Z,43.23
2022-12-08T23:00:23.237Z,44.53
2022-12-08T23:03:46.349Z,44.03
2022-12-08T23:07:09.424Z,42.27
2022-12-08T23:10:32.766Z,43.37
2022-12-08T23:13:56.249Z,41.37
2022-12-08T23:17:21.091Z,41.77
2022-12-08T23:20:44.631Z,43.13
2022-12-08T23:24:08.115Z,44.20
2022-12-08T23:27:32.358Z,41.53
2022-12-08T23:30:55.405Z,43.63
2022-12-08T23:34:19.931Z,43.23
2022-12-08T23:37:42.939Z,41.17
2022-12-08T23:41:07.887Z,40.23
2022-12-08T23:44:31.205Z,41.10
2022-12-08T23:47:54.629Z,41.30
2022-12-08T23:51:19.612Z,40.97
2022-12-08T23:54:42.916Z,42.70
2022-12-08T23:58:05.953Z,39.50
